Etusivu
METAR-TAF:

METAR-TAF

Lentoasemat :

Koror, Babelthuap Island, Palau

Leveyspiiri: 07-22N, Pituuspiiri: 134-32E, korkeus merenpinnasta: 54 m

Tämänhetkinen sää

Tämä raportti tehtiin 7 minuuttia sitten, kello 09.55 UTC
Tuuli 5 kn lännestä/lounaasta
Lämpötila 29°C
Kosteus 84%
Ilmanpaine 1009 hPa
Näkyvyys: 22.5 km
Hajonneita pilviä 1500 ft:n korkeudessa, Kasvava cumulus-pilvi.
Hajonneita pilviä 12000 ft:n korkeudessa
Hajonneita pilviä 30000 ft:n korkeudessa

METAR: PTRO 220955Z 25005KT 14SM BKN015TCU BKN120 BKN300 29/26 A2979 RMK TCU ALQDS

Aika: 19:02 (10:02 UTC)

Sääennuste

Tämä raportti tehtiin 4 tuntia ja 37 minuuttia sitten, kello 05.25 UTC
Ennuste voimassa 22. päivästä klo 06 UTC - 23. päivään klo 06 UTC
Tuuli 11 kn lännestä
Näkyvyys: 10 km
Hajanaisia pilviä 1600 ft:n korkeudessa
Hajanaisia pilviä 3000 ft:n korkeudessa
sadekuuroja näköpiirissä

TAF: PTRO 220525Z 2206/2306 27011KT P6SM VCSH SCT016 SCT030

Säähavainnot ja -ennusteet yli 4000 lentoasemalta (METAR- ja TAF-raportit).

Käytössä olevat sääasemat on merkitty karttaan keltaisilla ja punaisilla pisteillä.

Aseta hiiri pisteen päälle nähdäksesi sääaseman nimen.

Klikkaa sitten nähdäksesi säähavainnot ja -ennusteet.

Kartan vaihtaminen: klikkaa mustalla rastilla varustettuja vihreitä pisteitä, niin voit zoomata sisään; viivalla varustettua vihreää pistettä, niin voit zoomata ulos tai vihreitä nuolia, niin pääset viereisille kartoille.


METAR-TAF: